createdAt,value
2018-01-26T00:02:04.669Z,7.00
2018-01-26T00:04:32.275Z,6.22
2018-01-26T00:07:05.944Z,7.00
2018-01-26T00:09:37.726Z,8.02
2018-01-26T00:12:05.857Z,7.20
2018-01-26T00:30:00.954Z,6.75
2018-01-26T00:32:28.919Z,7.97
2018-01-26T00:35:00.074Z,7.07
2018-01-26T00:37:36.860Z,6.95
2018-01-26T00:40:08.749Z,6.28
2018-01-26T00:45:36.838Z,7.35
2018-01-26T00:48:06.449Z,6.70
2018-01-26T01:00:25.749Z,7.50
2018-01-26T01:02:52.273Z,6.72
2018-01-26T01:05:18.893Z,8.10
2018-01-26T01:07:51.310Z,7.62
2018-01-26T01:10:17.895Z,8.68
2018-01-26T01:12:50.613Z,8.70
2018-01-26T01:15:17.127Z,7.40
2018-01-26T01:18:21.174Z,7.50
2018-01-26T01:24:20.959Z,7.57
2018-01-26T01:26:47.528Z,7.60
2018-01-26T01:32:23.598Z,7.12
2018-01-26T01:38:25.698Z,8.82
2018-01-26T01:40:52.229Z,9.18
2018-01-26T01:46:17.023Z,8.85
2018-01-26T01:51:53.751Z,9.63
2018-01-26T01:54:23.003Z,9.27
2018-01-26T01:57:11.663Z,10.80
2018-01-26T02:00:00.535Z,9.13
2018-01-26T02:02:40.237Z,9.50
2018-01-26T02:05:06.579Z,10.07
2018-01-26T02:07:32.967Z,9.80
2018-01-26T02:19:23.873Z,9.38
2018-01-26T02:33:50.906Z,10.10
2018-01-26T02:36:17.438Z,11.88
2018-01-26T02:41:50.678Z,11.40
2018-01-26T02:44:17.818Z,11.57
2018-01-26T02:47:20.242Z,10.48
2018-01-26T02:49:51.037Z,11.07
2018-01-26T02:52:20.109Z,11.40
2018-01-26T02:55:23.054Z,11.38
2018-01-26T03:02:48.807Z,9.30
2018-01-26T03:05:18.779Z,11.50
2018-01-26T03:08:06.660Z,12.07
2018-01-26T03:10:35.515Z,11.57
2018-01-26T03:13:04.887Z,11.70
2018-01-26T03:22:21.071Z,11.60
2018-01-26T03:24:48.010Z,10.80
2018-01-26T03:30:14.617Z,12.20
2018-01-26T03:32:41.679Z,11.82
2018-01-26T03:35:08.752Z,12.60
2018-01-26T03:37:36.306Z,11.80
2018-01-26T03:43:09.858Z,12.37
2018-01-26T03:51:34.005Z,12.52
2018-01-26T04:06:11.257Z,11.68
2018-01-26T04:11:40.857Z,13.27
2018-01-26T04:14:07.703Z,12.30
2018-01-26T04:16:34.660Z,14.27
2018-01-26T04:19:07.886Z,12.77
2018-01-26T04:21:34.679Z,12.20
2018-01-26T04:27:06.705Z,14.18
2018-01-26T04:29:33.657Z,14.40
2018-01-26T04:32:00.683Z,13.48
2018-01-26T04:43:37.366Z,13.02
2018-01-26T04:58:02.386Z,15.10
2018-01-26T05:00:28.755Z,15.25
2018-01-26T05:02:57.860Z,13.20
2018-01-26T05:05:24.325Z,13.98
2018-01-26T05:07:51.599Z,15.75
2018-01-26T05:13:52.088Z,14.05
2018-01-26T05:16:18.992Z,13.95
2018-01-26T05:18:46.722Z,14.45
2018-01-26T05:21:13.485Z,14.43
2018-01-26T05:23:40.453Z,15.05
2018-01-26T05:26:07.787Z,15.20
2018-01-26T05:31:35.890Z,16.02
2018-01-26T05:40:21.535Z,16.00
2018-01-26T05:43:09.536Z,16.45
2018-01-26T05:45:38.840Z,16.80
2018-01-26T05:48:14.445Z,15.98
2018-01-26T05:57:05.888Z,16.02
2018-01-26T05:59:32.888Z,15.50
2018-01-26T06:02:00.084Z,15.65
2018-01-26T06:18:51.218Z,14.65
2018-01-26T06:27:37.672Z,16.17
2018-01-26T06:33:06.312Z,15.77
2018-01-26T06:41:38.453Z,14.60
2018-01-26T06:48:10.640Z,14.13
2018-01-26T06:50:50.608Z,16.80
2018-01-26T06:53:19.222Z,16.95
2018-01-26T06:55:45.784Z,14.75
2018-01-26T07:01:22.163Z,15.88
2018-01-26T07:03:50.525Z,15.45
2018-01-26T07:06:21.364Z,16.80
2018-01-26T07:08:51.746Z,16.70
2018-01-26T07:11:18.487Z,16.48
2018-01-26T07:13:49.048Z,14.57
2018-01-26T07:16:16.209Z,16.55
2018-01-26T07:21:52.335Z,16.25
2018-01-26T07:24:20.771Z,16.42
2018-01-26T07:26:48.822Z,16.52
2018-01-26T07:29:19.912Z,15.88
2018-01-26T07:31:46.749Z,16.55
2018-01-26T07:40:42.284Z,15.30
2018-01-26T07:43:10.827Z,18.10
2018-01-26T07:45:51.248Z,16.05
2018-01-26T07:48:19.439Z,14.55
2018-01-26T07:50:47.608Z,15.73
2018-01-26T07:53:15.061Z,17.05
2018-01-26T07:55:41.842Z,14.48
2018-01-26T07:58:10.373Z,15.25
2018-01-26T08:00:51.441Z,14.50
2018-01-26T08:03:42.064Z,13.88
2018-01-26T08:06:36.321Z,14.30
2018-01-26T08:24:43.746Z,14.45
2018-01-26T08:27:11.760Z,15.95
2018-01-26T08:29:48.828Z,14.45
2018-01-26T08:32:20.439Z,14.87
2018-01-26T08:34:55.982Z,13.13
2018-01-26T08:37:22.610Z,14.73
2018-01-26T08:39:50.711Z,14.15
2018-01-26T08:42:20.943Z,13.57
2018-01-26T08:44:50.068Z,14.05
2018-01-26T08:47:18.656Z,14.10
2018-01-26T08:52:56.536Z,14.13
2018-01-26T08:55:26.247Z,14.77
2018-01-26T08:57:52.827Z,14.23
2018-01-26T09:00:21.309Z,14.32
2018-01-26T09:02:51.858Z,13.98
2018-01-26T09:05:21.338Z,14.38
2018-01-26T09:07:49.100Z,14.52
2018-01-26T09:10:21.542Z,14.45
2018-01-26T09:12:51.471Z,13.60
2018-01-26T09:15:20.371Z,15.07
2018-01-26T09:17:53.228Z,14.40
2018-01-26T09:20:22.532Z,14.43
2018-01-26T09:22:52.932Z,14.75
2018-01-26T09:25:20.843Z,14.35
2018-01-26T09:27:50.445Z,14.93
2018-01-26T09:30:18.275Z,15.30
2018-01-26T09:32:57.625Z,14.30
2018-01-26T09:35:24.296Z,15.07
2018-01-26T09:37:51.960Z,14.50
2018-01-26T09:40:19.986Z,14.85
2018-01-26T09:42:48.342Z,15.80
2018-01-26T09:45:20.849Z,14.23
2018-01-26T09:47:51.462Z,14.50
2018-01-26T09:50:19.043Z,12.73
2018-01-26T09:52:47.663Z,15.10
2018-01-26T09:55:26.843Z,16.35
2018-01-26T09:58:07.506Z,14.75
2018-01-26T10:00:38.145Z,14.00
2018-01-26T10:03:07.685Z,13.70
2018-01-26T10:05:35.497Z,14.60
2018-01-26T10:08:08.127Z,13.60
2018-01-26T10:10:53.297Z,14.73
2018-01-26T10:13:21.378Z,14.20
2018-01-26T10:15:48.138Z,13.50
2018-01-26T10:18:21.120Z,14.35
2018-01-26T10:20:49.488Z,14.35
2018-01-26T10:23:18.570Z,15.43
2018-01-26T10:25:47.492Z,13.60
2018-01-26T10:28:15.443Z,14.60
2018-01-26T10:30:50.342Z,13.98
2018-01-26T10:33:20.042Z,14.40
2018-01-26T10:35:51.046Z,14.35
2018-01-26T10:40:49.427Z,16.67
2018-01-26T10:49:26.729Z,15.10
2018-01-26T10:55:03.631Z,13.27
2018-01-26T10:57:30.163Z,13.68
2018-01-26T10:59:56.702Z,14.57
2018-01-26T11:02:23.124Z,14.98
2018-01-26T11:04:51.344Z,15.15
2018-01-26T11:07:23.144Z,14.52
2018-01-26T11:09:51.443Z,14.23
2018-01-26T11:12:19.755Z,15.05
2018-01-26T11:14:50.285Z,13.60
2018-01-26T11:19:53.865Z,13.38
2018-01-26T11:38:17.084Z,13.35
2018-01-26T11:40:49.182Z,12.43
2018-01-26T11:43:23.972Z,12.15
2018-01-26T11:45:51.257Z,11.43
2018-01-26T11:48:21.914Z,12.93
2018-01-26T11:50:48.787Z,11.20
2018-01-26T11:53:15.547Z,11.70
2018-01-26T11:55:44.195Z,10.38
2018-01-26T11:58:13.364Z,10.10
2018-01-26T12:00:55.845Z,10.60
2018-01-26T12:03:23.320Z,12.25
2018-01-26T12:08:23.462Z,11.82
2018-01-26T12:10:50.505Z,12.35
2018-01-26T12:13:20.731Z,10.70
2018-01-26T12:15:48.100Z,12.52
2018-01-26T12:20:49.948Z,10.55
2018-01-26T12:23:21.455Z,9.95
2018-01-26T12:25:50.725Z,10.38
2018-01-26T12:31:23.466Z,9.00
2018-01-26T12:33:50.748Z,10.60
2018-01-26T12:36:21.150Z,9.40
2018-01-26T12:38:50.920Z,10.90
2018-01-26T12:41:17.768Z,10.57
2018-01-26T12:43:50.749Z,9.50
2018-01-26T12:46:24.760Z,9.43
2018-01-26T12:48:52.392Z,8.40
2018-01-26T12:51:25.312Z,11.55
2018-01-26T12:53:55.620Z,10.65
2018-01-26T12:56:27.491Z,8.30
2018-01-26T12:58:59.754Z,8.35
2018-01-26T13:01:34.385Z,9.07
2018-01-26T13:04:00.834Z,8.30
2018-01-26T13:06:27.566Z,9.30
2018-01-26T13:08:54.222Z,8.82
2018-01-26T13:11:36.017Z,8.85
2018-01-26T13:14:06.547Z,8.07
2018-01-26T13:16:34.207Z,10.20
2018-01-26T13:19:02.322Z,9.90
2018-01-26T13:21:29.321Z,9.57
2018-01-26T13:24:03.231Z,9.15
2018-01-26T13:26:31.049Z,8.82
2018-01-26T13:32:06.857Z,7.57
2018-01-26T13:40:36.023Z,7.57
2018-01-26T13:46:00.454Z,7.87
2018-01-26T13:48:36.606Z,8.15
2018-01-26T13:51:07.009Z,8.85
2018-01-26T13:53:34.245Z,9.65
2018-01-26T13:56:00.940Z,9.23
2018-01-26T13:58:31.047Z,9.70
2018-01-26T14:01:06.071Z,9.25
2018-01-26T14:18:43.655Z,12.75
2018-01-26T14:27:26.938Z,10.02
2018-01-26T14:29:53.438Z,11.02
2018-01-26T14:32:37.968Z,11.55
2018-01-26T14:37:57.702Z,11.48
2018-01-26T14:40:34.482Z,10.57
2018-01-26T14:43:04.664Z,11.10
2018-01-26T14:45:33.783Z,10.80
2018-01-26T14:48:00.307Z,10.07
2018-01-26T14:50:26.884Z,9.00
2018-01-26T14:52:54.364Z,9.95
2018-01-26T14:55:20.875Z,8.55
2018-01-26T14:58:05.208Z,8.80
2018-01-26T15:03:33.729Z,8.48
2018-01-26T15:06:04.086Z,8.70
2018-01-26T15:08:33.102Z,9.57
2018-01-26T15:10:59.619Z,8.68
2018-01-26T15:13:27.123Z,9.75
2018-01-26T15:16:06.875Z,10.02
2018-01-26T15:18:33.402Z,8.50
2018-01-26T15:21:00.116Z,8.55
2018-01-26T15:23:44.759Z,10.15
2018-01-26T15:32:05.523Z,8.75
2018-01-26T15:34:32.589Z,7.85
2018-01-26T15:37:01.282Z,8.32
2018-01-26T15:39:28.238Z,8.60
2018-01-26T15:41:59.876Z,7.07
2018-01-26T15:44:30.307Z,7.25
2018-01-26T15:46:56.837Z,7.45
2018-01-26T15:49:32.492Z,6.80
2018-01-26T15:52:06.557Z,7.65
2018-01-26T15:54:34.335Z,6.45
2018-01-26T15:57:03.385Z,7.70
2018-01-26T15:59:32.290Z,7.70
2018-01-26T16:02:06.431Z,7.55
2018-01-26T16:04:34.241Z,7.72
2018-01-26T16:07:10.471Z,7.78
2018-01-26T16:12:45.419Z,7.25
2018-01-26T16:15:11.744Z,8.32
2018-01-26T16:20:31.769Z,11.12
2018-01-26T16:23:06.596Z,11.57
2018-01-26T16:25:32.897Z,12.37
2018-01-26T16:28:05.428Z,11.43
2018-01-26T16:30:31.874Z,12.15
2018-01-26T16:32:59.468Z,10.82
2018-01-26T16:35:26.238Z,10.70
2018-01-26T16:37:53.618Z,10.30
2018-01-26T16:40:19.906Z,9.95
2018-01-26T16:42:46.281Z,9.80
2018-01-26T16:45:38.110Z,10.65
2018-01-26T16:48:05.057Z,9.63
2018-01-26T16:50:31.804Z,10.38
2018-01-26T16:52:58.634Z,9.05
2018-01-26T16:57:56.928Z,9.68
2018-01-26T17:00:37.395Z,9.63
2018-01-26T17:03:05.243Z,9.27
2018-01-26T17:05:35.510Z,10.10
2018-01-26T17:08:02.184Z,8.02
2018-01-26T17:10:28.954Z,9.27
2018-01-26T17:12:55.570Z,8.82
2018-01-26T17:15:22.137Z,9.35
2018-01-26T17:18:05.735Z,10.00
2018-01-26T17:20:32.190Z,10.23
2018-01-26T17:25:59.081Z,11.32
2018-01-26T17:28:25.482Z,9.55
2018-01-26T17:30:52.115Z,10.85
2018-01-26T17:36:28.221Z,10.15
2018-01-26T17:38:54.785Z,10.20
2018-01-26T17:41:21.174Z,10.35
2018-01-26T17:44:08.477Z,11.25
2018-01-26T17:49:29.253Z,11.00
2018-01-26T17:51:55.776Z,12.25
2018-01-26T17:54:22.150Z,10.20
2018-01-26T17:56:48.574Z,11.85
2018-01-26T17:59:15.051Z,10.43
2018-01-26T18:01:42.043Z,12.13
2018-01-26T18:04:09.031Z,12.60
2018-01-26T18:09:27.411Z,12.68
2018-01-26T18:11:53.970Z,11.20
2018-01-26T18:14:20.737Z,11.45
2018-01-26T18:16:47.699Z,12.02
2018-01-26T18:19:14.460Z,13.00
2018-01-26T18:21:41.184Z,12.55
2018-01-26T18:24:07.640Z,13.98
2018-01-26T18:36:04.857Z,13.88
2018-01-26T18:41:34.115Z,13.70
2018-01-26T18:44:00.595Z,14.82
2018-01-26T18:46:34.933Z,14.50
2018-01-26T18:49:01.869Z,15.90
2018-01-26T18:51:30.088Z,15.02
2018-01-26T18:57:03.309Z,16.35
2018-01-26T18:59:35.119Z,14.75
2018-01-26T19:02:10.165Z,13.82
2018-01-26T19:04:38.400Z,14.07
2018-01-26T19:07:05.367Z,15.65
2018-01-26T19:09:35.530Z,14.93
2018-01-26T19:12:04.644Z,14.43
2018-01-26T19:14:32.459Z,15.50
2018-01-26T19:16:59.360Z,14.23
2018-01-26T19:19:38.124Z,14.73
2018-01-26T19:22:05.002Z,15.52
2018-01-26T19:24:34.115Z,15.73
2018-01-26T19:27:01.089Z,16.48
2018-01-26T19:32:25.207Z,15.88
2018-01-26T19:35:05.212Z,16.77
2018-01-26T19:37:36.085Z,17.90
2018-01-26T19:40:02.528Z,18.27
2018-01-26T19:42:29.475Z,17.95
2018-01-26T19:44:56.287Z,16.45
2018-01-26T19:47:38.581Z,18.67
2018-01-26T19:50:07.794Z,20.73
2018-01-26T19:52:34.129Z,20.45
2018-01-26T19:55:00.764Z,19.95
2018-01-26T20:04:04.246Z,28.50
2018-01-26T20:09:28.600Z,18.35
2018-01-26T20:15:00.795Z,21.23
2018-01-26T20:17:36.381Z,19.77
2018-01-26T20:20:21.782Z,19.60
2018-01-26T20:31:41.979Z,18.80
2018-01-26T20:37:07.793Z,17.15
2018-01-26T20:39:37.444Z,17.35
2018-01-26T20:42:05.730Z,17.60
2018-01-26T20:44:56.179Z,18.50
2018-01-26T20:47:39.372Z,18.85
2018-01-26T20:50:06.540Z,17.45
2018-01-26T20:52:33.333Z,16.92
2018-01-26T20:55:00.233Z,18.15
2018-01-26T20:57:26.874Z,16.52
2018-01-26T20:59:53.463Z,17.90
2018-01-26T21:02:22.656Z,21.25
2018-01-26T21:04:49.315Z,21.52
2018-01-26T21:07:15.740Z,21.00
2018-01-26T21:09:42.195Z,22.27
2018-01-26T21:12:09.445Z,21.65
2018-01-26T21:14:38.395Z,31.70
2018-01-26T21:17:10.995Z,31.92
2018-01-26T21:19:43.824Z,36.50
2018-01-26T21:22:11.683Z,32.92
2018-01-26T21:24:38.231Z,31.17
2018-01-26T21:27:04.727Z,27.87
2018-01-26T21:41:41.864Z,20.95
2018-01-26T21:44:10.256Z,21.00
2018-01-26T21:46:44.266Z,21.17
2018-01-26T21:49:12.908Z,21.95
2018-01-26T21:51:40.418Z,22.85
2018-01-26T21:54:07.026Z,21.42
2018-01-26T21:56:34.830Z,21.67
2018-01-26T21:59:02.099Z,20.25
2018-01-26T22:01:31.700Z,20.10
2018-01-26T22:03:59.450Z,20.27
2018-01-26T22:06:32.023Z,20.90
2018-01-26T22:08:58.675Z,22.40
2018-01-26T22:11:32.404Z,23.25
2018-01-26T22:13:59.665Z,21.90
2018-01-26T22:16:27.156Z,22.35
2018-01-26T22:18:59.116Z,20.80
2018-01-26T22:21:26.143Z,19.98
2018-01-26T22:23:53.117Z,19.98
2018-01-26T22:26:26.389Z,19.85
2018-01-26T22:34:46.993Z,20.62
2018-01-26T22:37:16.321Z,21.30
2018-01-26T22:39:53.751Z,21.80
2018-01-26T22:42:40.736Z,21.08
2018-01-26T22:45:12.315Z,21.73
2018-01-26T22:53:15.217Z,23.90
2018-01-26T22:55:50.855Z,23.80
2018-01-26T22:58:17.571Z,26.87
2018-01-26T23:00:44.532Z,28.05
2018-01-26T23:03:11.111Z,26.05
2018-01-26T23:11:38.372Z,23.75
2018-01-26T23:17:14.920Z,25.92
2018-01-26T23:19:47.765Z,24.00
2018-01-26T23:22:14.499Z,23.85
2018-01-26T23:24:41.345Z,25.00
2018-01-26T23:27:08.032Z,23.58
2018-01-26T23:29:36.262Z,25.35
2018-01-26T23:32:06.735Z,25.00
2018-01-26T23:34:39.758Z,24.00
2018-01-26T23:37:06.288Z,23.92
2018-01-26T23:39:32.727Z,23.77
2018-01-26T23:41:59.148Z,24.65
2018-01-26T23:44:26.132Z,23.23
2018-01-26T23:46:58.129Z,20.90
2018-01-26T23:49:26.668Z,22.70
2018-01-26T23:51:57.383Z,22.65
2018-01-26T23:54:24.310Z,23.08
2018-01-26T23:56:51.907Z,25.30
2018-01-26T23:59:18.545Z,25.70
